sensor_id;sensor_type;location;lat;lon;timestamp;pressure;altitude;pressure_sealevel;temperature;humidity
13029;BME280;6581;42.662;23.402;2023-02-15T00:02:13;96537.78;;;2.31;93.12
13029;BME280;6581;42.662;23.402;2023-02-15T00:04:48;96550.41;;;2.23;93.56
13029;BME280;6581;42.662;23.402;2023-02-15T00:07:19;96549.09;;;2.21;93.37
13029;BME280;6581;42.662;23.402;2023-02-15T00:09:47;96545.22;;;2.18;93.81
13029;BME280;6581;42.662;23.402;2023-02-15T00:12:22;96547.78;;;2.23;93.92
13029;BME280;6581;42.662;23.402;2023-02-15T00:14:58;96561.31;;;2.31;93.84
13029;BME280;6581;42.662;23.402;2023-02-15T00:17:28;96534.03;;;2.08;94.57
13029;BME280;6581;42.662;23.402;2023-02-15T00:20:07;96546.00;;;2.19;94.76
13029;BME280;6581;42.662;23.402;2023-02-15T00:22:38;96559.06;;;2.19;94.91
13029;BME280;6581;42.662;23.402;2023-02-15T00:25:09;96556.75;;;2.12;95.66
13029;BME280;6581;42.662;23.402;2023-02-15T00:27:51;96565.78;;;2.25;95.68
13029;BME280;6581;42.662;23.402;2023-02-15T00:30:27;96572.38;;;2.22;95.65
13029;BME280;6581;42.662;23.402;2023-02-15T00:32:58;96570.00;;;2.21;95.98
13029;BME280;6581;42.662;23.402;2023-02-15T00:35:43;96557.25;;;2.14;95.76
13029;BME280;6581;42.662;23.402;2023-02-15T00:38:24;96571.31;;;2.23;95.76
13029;BME280;6581;42.662;23.402;2023-02-15T00:41:51;96571.34;;;2.18;95.89
13029;BME280;6581;42.662;23.402;2023-02-15T00:44:31;96571.84;;;2.20;96.01
13029;BME280;6581;42.662;23.402;2023-02-15T00:47:18;96567.41;;;2.21;95.33
13029;BME280;6581;42.662;23.402;2023-02-15T00:50:13;96572.63;;;2.21;95.37
13029;BME280;6581;42.662;23.402;2023-02-15T00:53:00;96551.28;;;2.09;95.36
13029;BME280;6581;42.662;23.402;2023-02-15T00:58:43;96558.31;;;2.13;95.39
13029;BME280;6581;42.662;23.402;2023-02-15T01:01:27;96565.38;;;2.13;95.83
13029;BME280;6581;42.662;23.402;2023-02-15T01:04:34;96556.53;;;2.04;96.05
13029;BME280;6581;42.662;23.402;2023-02-15T01:07:21;96547.66;;;2.05;96.28
13029;BME280;6581;42.662;23.402;2023-02-15T01:10:00;96561.75;;;2.09;96.11
13029;BME280;6581;42.662;23.402;2023-02-15T01:12:55;96562.50;;;2.14;95.94
13029;BME280;6581;42.662;23.402;2023-02-15T01:15:30;96555.47;;;2.10;96.07
13029;BME280;6581;42.662;23.402;2023-02-15T01:18:08;96539.78;;;2.10;95.88
13029;BME280;6581;42.662;23.402;2023-02-15T01:20:42;96552.06;;;2.09;95.90
13029;BME280;6581;42.662;23.402;2023-02-15T01:23:28;96558.03;;;2.15;95.68
13029;BME280;6581;42.662;23.402;2023-02-15T01:26:41;96551.03;;;2.10;95.55
13029;BME280;6581;42.662;23.402;2023-02-15T01:29:11;96539.25;;;2.08;96.09
13029;BME280;6581;42.662;23.402;2023-02-15T01:31:44;96524.16;;;2.00;96.11
13029;BME280;6581;42.662;23.402;2023-02-15T01:34:21;96521.56;;;2.00;95.72
13029;BME280;6581;42.662;23.402;2023-02-15T01:37:03;96541.84;;;2.13;95.92
13029;BME280;6581;42.662;23.402;2023-02-15T01:39:59;96520.03;;;1.89;96.31
13029;BME280;6581;42.662;23.402;2023-02-15T01:42:30;96536.91;;;2.06;96.54
13029;BME280;6581;42.662;23.402;2023-02-15T01:45:05;96512.97;;;1.94;96.81
13029;BME280;6581;42.662;23.402;2023-02-15T01:47:51;96519.75;;;1.95;97.09
13029;BME280;6581;42.662;23.402;2023-02-15T01:50:23;96515.59;;;1.89;97.38
13029;BME280;6581;42.662;23.402;2023-02-15T01:53:01;96532.75;;;2.05;97.70
13029;BME280;6581;42.662;23.402;2023-02-15T02:01:56;96522.13;;;1.92;98.13
13029;BME280;6581;42.662;23.402;2023-02-15T02:04:04;96524.19;;;1.95;98.04
13029;BME280;6581;42.662;23.402;2023-02-15T02:06:55;96520.81;;;1.94;98.56
13029;BME280;6581;42.662;23.402;2023-02-15T02:09:47;96511.22;;;1.79;99.20
13029;BME280;6581;42.662;23.402;2023-02-15T02:12:22;96539.88;;;1.95;99.01
13029;BME280;6581;42.662;23.402;2023-02-15T02:14:51;96530.25;;;1.90;99.24
13029;BME280;6581;42.662;23.402;2023-02-15T02:17:32;96531.50;;;1.93;99.16
13029;BME280;6581;42.662;23.402;2023-02-15T02:20:33;96543.03;;;1.92;99.51
13029;BME280;6581;42.662;23.402;2023-02-15T02:30:54;96534.69;;;1.90;99.47
13029;BME280;6581;42.662;23.402;2023-02-15T02:37:22;96530.59;;;1.78;99.56
13029;BME280;6581;42.662;23.402;2023-02-15T02:40:48;96528.50;;;1.75;99.89
13029;BME280;6581;42.662;23.402;2023-02-15T02:43:31;96523.50;;;1.79;99.77
13029;BME280;6581;42.662;23.402;2023-02-15T02:46:11;96532.59;;;1.92;99.70
13029;BME280;6581;42.662;23.402;2023-02-15T02:48:45;96545.13;;;1.90;100.00
13029;BME280;6581;42.662;23.402;2023-02-15T02:51:14;96550.56;;;1.98;99.80
13029;BME280;6581;42.662;23.402;2023-02-15T02:53:51;96540.69;;;1.90;100.00
13029;BME280;6581;42.662;23.402;2023-02-15T02:56:31;96537.53;;;1.93;99.82
13029;BME280;6581;42.662;23.402;2023-02-15T02:59:46;96523.50;;;1.79;100.00
13029;BME280;6581;42.662;23.402;2023-02-15T03:02:38;96549.28;;;1.96;100.00
13029;BME280;6581;42.662;23.402;2023-02-15T03:05:11;96554.78;;;1.94;100.00
13029;BME280;6581;42.662;23.402;2023-02-15T03:07:41;96562.06;;;1.97;100.00
13029;BME280;6581;42.662;23.402;2023-02-15T03:10:10;96563.41;;;1.95;100.00
13029;BME280;6581;42.662;23.402;2023-02-15T03:12:39;96569.63;;;1.99;100.00
13029;BME280;6581;42.662;23.402;2023-02-15T03:15:10;96562.34;;;1.96;100.00
13029;BME280;6581;42.662;23.402;2023-02-15T03:17:45;96558.16;;;2.00;100.00
13029;BME280;6581;42.662;23.402;2023-02-15T03:20:46;96570.16;;;2.01;100.00
13029;BME280;6581;42.662;23.402;2023-02-15T03:23:23;96556.56;;;1.99;100.00
13029;BME280;6581;42.662;23.402;2023-02-15T03:25:57;96567.47;;;2.11;99.78
13029;BME280;6581;42.662;23.402;2023-02-15T03:28:38;96543.03;;;1.92;99.69
13029;BME280;6581;42.662;23.402;2023-02-15T03:31:23;96559.69;;;2.06;99.79
13029;BME280;6581;42.662;23.402;2023-02-15T03:34:13;96556.00;;;2.07;99.88
13029;BME280;6581;42.662;23.402;2023-02-15T03:36:47;96548.19;;;2.02;99.58
13029;BME280;6581;42.662;23.402;2023-02-15T03:39:24;96552.84;;;2.10;99.61
13029;BME280;6581;42.662;23.402;2023-02-15T03:42:24;96544.56;;;1.98;99.86
13029;BME280;6581;42.662;23.402;2023-02-15T03:45:02;96546.34;;;2.02;99.80
13029;BME280;6581;42.662;23.402;2023-02-15T03:47:40;96537.19;;;2.05;99.90
13029;BME280;6581;42.662;23.402;2023-02-15T03:50:11;96554.38;;;2.11;99.96
13029;BME280;6581;42.662;23.402;2023-02-15T03:52:56;96558.53;;;2.17;100.00
13029;BME280;6581;42.662;23.402;2023-02-15T03:55:25;96563.31;;;2.10;100.00
13029;BME280;6581;42.662;23.402;2023-02-15T03:57:52;96557.28;;;2.09;100.00
13029;BME280;6581;42.662;23.402;2023-02-15T04:00:41;96557.50;;;2.18;100.00
13029;BME280;6581;42.662;23.402;2023-02-15T04:03:32;96566.91;;;2.19;100.00
13029;BME280;6581;42.662;23.402;2023-02-15T04:06:01;96571.28;;;2.29;100.00
13029;BME280;6581;42.662;23.402;2023-02-15T04:08:30;96572.34;;;2.28;99.52
13029;BME280;6581;42.662;23.402;2023-02-15T04:11:21;96580.16;;;2.28;99.74
13029;BME280;6581;42.662;23.402;2023-02-15T04:13:49;96578.56;;;2.32;99.60
13029;BME280;6581;42.662;23.402;2023-02-15T04:17:18;96585.56;;;2.41;99.02
13029;BME280;6581;42.662;23.402;2023-02-15T04:19:50;96583.19;;;2.45;98.80
13029;BME280;6581;42.662;23.402;2023-02-15T04:25:47;96596.19;;;2.55;98.51
13029;BME280;6581;42.662;23.402;2023-02-15T04:28:40;96601.66;;;2.53;98.32
13029;BME280;6581;42.662;23.402;2023-02-15T04:31:07;96606.66;;;2.55;98.45
13029;BME280;6581;42.662;23.402;2023-02-15T04:33:34;96619.16;;;2.58;98.03
13029;BME280;6581;42.662;23.402;2023-02-15T04:36:03;96611.31;;;2.58;98.15
13029;BME280;6581;42.662;23.402;2023-02-15T04:38:30;96614.75;;;2.53;97.97
13029;BME280;6581;42.662;23.402;2023-02-15T04:40:58;96608.69;;;2.58;97.96
13029;BME280;6581;42.662;23.402;2023-02-15T04:43:25;96614.16;;;2.61;97.44
13029;BME280;6581;42.662;23.402;2023-02-15T04:45:52;96620.72;;;2.59;97.85
13029;BME280;6581;42.662;23.402;2023-02-15T04:48:19;96616.28;;;2.59;98.01
13029;BME280;6581;42.662;23.402;2023-02-15T04:50:46;96610.22;;;2.64;97.91
13029;BME280;6581;42.662;23.402;2023-02-15T04:53:13;96609.97;;;2.65;97.75
13029;BME280;6581;42.662;23.402;2023-02-15T04:55:43;96629.81;;;2.66;97.87
13029;BME280;6581;42.662;23.402;2023-02-15T04:58:11;96621.47;;;2.64;97.78
13029;BME280;6581;42.662;23.402;2023-02-15T05:00:38;96614.09;;;2.72;97.69
13029;BME280;6581;42.662;23.402;2023-02-15T05:03:06;96622.22;;;2.70;97.70
13029;BME280;6581;42.662;23.402;2023-02-15T05:05:33;96621.97;;;2.66;97.66
13029;BME280;6581;42.662;23.402;2023-02-15T05:08:01;96616.66;;;2.77;97.54
13029;BME280;6581;42.662;23.402;2023-02-15T05:10:35;96634.38;;;2.85;97.16
13029;BME280;6581;42.662;23.402;2023-02-15T05:13:02;96627.13;;;2.77;97.12
13029;BME280;6581;42.662;23.402;2023-02-15T05:21:40;96616.28;;;2.59;97.08
13029;BME280;6581;42.662;23.402;2023-02-15T05:24:31;96642.34;;;2.75;97.18
13029;BME280;6581;42.662;23.402;2023-02-15T05:27:55;96649.06;;;2.81;97.06
13029;BME280;6581;42.662;23.402;2023-02-15T05:31:30;96634.50;;;2.75;97.16
13029;BME280;6581;42.662;23.402;2023-02-15T05:34:01;96646.25;;;2.72;96.93
13029;BME280;6581;42.662;23.402;2023-02-15T05:36:36;96635.09;;;2.61;97.53
13029;BME280;6581;42.662;23.402;2023-02-15T05:39:21;96644.66;;;2.76;97.32
13029;BME280;6581;42.662;23.402;2023-02-15T05:41:51;96633.50;;;2.65;97.42
13029;BME280;6581;42.662;23.402;2023-02-15T05:44:22;96651.47;;;2.77;97.35
13029;BME280;6581;42.662;23.402;2023-02-15T05:47:17;96660.09;;;2.78;97.54
13029;BME280;6581;42.662;23.402;2023-02-15T05:49:49;96655.88;;;2.82;97.32
13029;BME280;6581;42.662;23.402;2023-02-15T05:52:19;96639.50;;;2.66;97.08
13029;BME280;6581;42.662;23.402;2023-02-15T05:54:49;96654.53;;;2.84;96.97
13029;BME280;6581;42.662;23.402;2023-02-15T05:57:16;96642.34;;;2.75;96.56
13029;BME280;6581;42.662;23.402;2023-02-15T05:59:44;96653.66;;;2.94;96.74
13029;BME280;6581;42.662;23.402;2023-02-15T06:02:16;96660.38;;;3.05;96.55
13029;BME280;6581;42.662;23.402;2023-02-15T06:05:58;96658.38;;;2.97;95.47
13029;BME280;6581;42.662;23.402;2023-02-15T06:08:05;96659.56;;;3.09;94.90
13029;BME280;6581;42.662;23.402;2023-02-15T06:10:36;96667.88;;;3.17;94.69
13029;BME280;6581;42.662;23.402;2023-02-15T06:13:03;96662.19;;;3.09;94.49
13029;BME280;6581;42.662;23.402;2023-02-15T06:15:32;96652.13;;;2.93;94.82
13029;BME280;6581;42.662;23.402;2023-02-15T06:18:08;96665.03;;;3.13;94.62
13029;BME280;6581;42.662;23.402;2023-02-15T06:20:36;96661.53;;;3.23;94.30
13029;BME280;6581;42.662;23.402;2023-02-15T06:23:25;96646.75;;;3.08;93.04
13029;BME280;6581;42.662;23.402;2023-02-15T06:25:53;96652.75;;;3.08;93.51
13029;BME280;6581;42.662;23.402;2023-02-15T06:28:21;96670.72;;;3.20;92.74
13029;BME280;6581;42.662;23.402;2023-02-15T06:31:12;96656.34;;;3.18;92.33
13029;BME280;6581;42.662;23.402;2023-02-15T06:33:49;96668.00;;;3.30;92.27
13029;BME280;6581;42.662;23.402;2023-02-15T06:36:31;96668.28;;;3.29;91.95
13029;BME280;6581;42.662;23.402;2023-02-15T06:39:17;96660.97;;;3.26;92.59
13029;BME280;6581;42.662;23.402;2023-02-15T06:41:44;96672.13;;;3.36;91.89
13029;BME280;6581;42.662;23.402;2023-02-15T06:44:11;96668.47;;;3.37;91.71
13029;BME280;6581;42.662;23.402;2023-02-15T06:46:38;96668.28;;;3.29;91.64
13029;BME280;6581;42.662;23.402;2023-02-15T06:49:07;96667.16;;;3.35;91.68
13029;BME280;6581;42.662;23.402;2023-02-15T06:51:34;96672.75;;;3.28;91.29
13029;BME280;6581;42.662;23.402;2023-02-15T06:54:02;96663.00;;;3.34;91.36
13029;BME280;6581;42.662;23.402;2023-02-15T06:56:29;96660.22;;;3.49;91.43
13029;BME280;6581;42.662;23.402;2023-02-15T06:59:07;96660.78;;;3.46;90.46
13029;BME280;6581;42.662;23.402;2023-02-15T07:01:50;96652.22;;;3.35;90.67
13029;BME280;6581;42.662;23.402;2023-02-15T07:04:24;96652.09;;;3.50;90.33
13029;BME280;6581;42.662;23.402;2023-02-15T07:07:00;96666.56;;;3.67;90.14
13029;BME280;6581;42.662;23.402;2023-02-15T07:09:27;96655.75;;;3.73;89.45
13029;BME280;6581;42.662;23.402;2023-02-15T07:11:55;96656.22;;;3.56;88.79
13029;BME280;6581;42.662;23.402;2023-02-15T07:14:42;96670.84;;;3.81;88.49
13029;BME280;6581;42.662;23.402;2023-02-15T07:17:29;96675.41;;;3.94;88.01
13029;BME280;6581;42.662;23.402;2023-02-15T07:20:02;96675.09;;;3.77;87.65
13029;BME280;6581;42.662;23.402;2023-02-15T07:22:55;96684.06;;;3.95;86.84
13029;BME280;6581;42.662;23.402;2023-02-15T07:25:27;96687.63;;;4.04;86.66
13029;BME280;6581;42.662;23.402;2023-02-15T07:27:56;96687.56;;;4.09;85.03
13029;BME280;6581;42.662;23.402;2023-02-15T07:30:26;96684.38;;;3.93;85.37
13029;BME280;6581;42.662;23.402;2023-02-15T07:33:18;96647.31;;;3.76;86.01
13029;BME280;6581;42.662;23.402;2023-02-15T07:39:21;96670.59;;;3.83;86.04
13029;BME280;6581;42.662;23.402;2023-02-15T07:42:52;96644.94;;;3.80;85.46
13029;BME280;6581;42.662;23.402;2023-02-15T07:45:29;96654.47;;;4.13;84.64
13029;BME280;6581;42.662;23.402;2023-02-15T07:49:03;96658.72;;;4.09;83.78
13029;BME280;6581;42.662;23.402;2023-02-15T07:51:49;96650.78;;;4.14;83.16
13029;BME280;6581;42.662;23.402;2023-02-15T08:04:59;96663.50;;;4.26;81.85
13029;BME280;6581;42.662;23.402;2023-02-15T08:07:29;96661.78;;;4.16;82.50
13029;BME280;6581;42.662;23.402;2023-02-15T08:09:59;96678.91;;;4.09;82.89
13029;BME280;6581;42.662;23.402;2023-02-15T08:12:33;96674.59;;;4.18;83.93
13029;BME280;6581;42.662;23.402;2023-02-15T08:15:03;96675.16;;;4.15;82.60
13029;BME280;6581;42.662;23.402;2023-02-15T08:17:36;96672.97;;;4.22;82.87
13029;BME280;6581;42.662;23.402;2023-02-15T08:22:53;96651.00;;;4.36;81.17
13029;BME280;6581;42.662;23.402;2023-02-15T08:25:23;96660.84;;;4.63;80.58
13029;BME280;6581;42.662;23.402;2023-02-15T08:28:14;96671.56;;;4.67;80.43
13029;BME280;6581;42.662;23.402;2023-02-15T08:30:46;96683.84;;;4.71;80.08
13029;BME280;6581;42.662;23.402;2023-02-15T08:33:19;96664.50;;;4.49;80.16
13029;BME280;6581;42.662;23.402;2023-02-15T08:35:57;96673.41;;;4.47;80.13
13029;BME280;6581;42.662;23.402;2023-02-15T08:38:28;96678.88;;;4.51;80.02
13029;BME280;6581;42.662;23.402;2023-02-15T08:41:09;96658.50;;;4.62;79.98
13029;BME280;6581;42.662;23.402;2023-02-15T08:43:42;96672.22;;;4.91;77.73
13029;BME280;6581;42.662;23.402;2023-02-15T08:46:18;96655.13;;;4.42;78.28
13029;BME280;6581;42.662;23.402;2023-02-15T08:48:48;96655.84;;;4.48;78.58
13029;BME280;6581;42.662;23.402;2023-02-15T08:51:22;96663.25;;;4.41;77.79
13029;BME280;6581;42.662;23.402;2023-02-15T08:53:58;96683.63;;;4.49;78.15
13029;BME280;6581;42.662;23.402;2023-02-15T08:56:27;96683.47;;;4.78;78.21
13029;BME280;6581;42.662;23.402;2023-02-15T08:58:58;96669.22;;;4.65;76.56
13029;BME280;6581;42.662;23.402;2023-02-15T09:01:27;96688.47;;;4.93;77.03
13029;BME280;6581;42.662;23.402;2023-02-15T09:03:56;96682.16;;;4.94;75.67
13029;BME280;6581;42.662;23.402;2023-02-15T09:06:30;96666.09;;;4.96;75.13
13029;BME280;6581;42.662;23.402;2023-02-15T09:09:36;96686.72;;;5.21;73.59
13029;BME280;6581;42.662;23.402;2023-02-15T09:12:03;96686.28;;;5.14;72.84
13029;BME280;6581;42.662;23.402;2023-02-15T09:14:32;96686.53;;;5.17;72.62
13029;BME280;6581;42.662;23.402;2023-02-15T09:17:00;96687.59;;;5.16;72.12
13029;BME280;6581;42.662;23.402;2023-02-15T09:19:35;96665.88;;;5.11;72.68
13029;BME280;6581;42.662;23.402;2023-02-15T09:22:05;96687.66;;;5.11;72.16
13029;BME280;6581;42.662;23.402;2023-02-15T09:25:02;96690.69;;;5.18;71.83
13029;BME280;6581;42.662;23.402;2023-02-15T09:27:31;96684.31;;;5.38;71.14
13029;BME280;6581;42.662;23.402;2023-02-15T09:30:05;96678.97;;;5.43;70.09
13029;BME280;6581;42.662;23.402;2023-02-15T09:32:35;96693.66;;;5.44;70.24
13029;BME280;6581;42.662;23.402;2023-02-15T09:35:11;96670.69;;;5.36;71.65
13029;BME280;6581;42.662;23.402;2023-02-15T09:37:49;96665.22;;;5.32;70.63
13029;BME280;6581;42.662;23.402;2023-02-15T09:40:40;96676.81;;;5.31;70.07
13029;BME280;6581;42.662;23.402;2023-02-15T09:43:32;96666.88;;;5.28;70.98
13029;BME280;6581;42.662;23.402;2023-02-15T09:46:54;96683.13;;;5.30;70.29
13029;BME280;6581;42.662;23.402;2023-02-15T09:49:42;96685.19;;;5.33;70.70
13029;BME280;6581;42.662;23.402;2023-02-15T09:52:34;96678.19;;;5.56;70.93
13029;BME280;6581;42.662;23.402;2023-02-15T09:55:42;96680.75;;;5.61;70.33
13029;BME280;6581;42.662;23.402;2023-02-15T09:58:20;96681.63;;;5.70;68.90
13029;BME280;6581;42.662;23.402;2023-02-15T10:00:57;96664.97;;;5.61;68.68
13029;BME280;6581;42.662;23.402;2023-02-15T10:03:41;96655.31;;;5.57;69.57
13029;BME280;6581;42.662;23.402;2023-02-15T10:06:27;96665.25;;;5.60;69.15
13029;BME280;6581;42.662;23.402;2023-02-15T10:09:17;96667.66;;;5.43;70.28
13029;BME280;6581;42.662;23.402;2023-02-15T10:11:59;96663.69;;;5.45;69.67
13029;BME280;6581;42.662;23.402;2023-02-15T10:14:43;96657.81;;;5.21;70.44
13029;BME280;6581;42.662;23.402;2023-02-15T10:17:23;96663.69;;;5.31;70.09
13029;BME280;6581;42.662;23.402;2023-02-15T10:20:17;96675.38;;;5.39;70.53
13029;BME280;6581;42.662;23.402;2023-02-15T10:23:20;96652.97;;;5.42;71.68
13029;BME280;6581;42.662;23.402;2023-02-15T10:25:57;96647.06;;;5.50;70.49
13029;BME280;6581;42.662;23.402;2023-02-15T10:28:45;96628.34;;;5.38;70.67
13029;BME280;6581;42.662;23.402;2023-02-15T10:31:28;96642.97;;;5.71;68.81
13029;BME280;6581;42.662;23.402;2023-02-15T10:34:16;96639.66;;;5.52;68.61
13029;BME280;6581;42.662;23.402;2023-02-15T10:37:05;96641.31;;;5.48;69.57
13029;BME280;6581;42.662;23.402;2023-02-15T10:39:45;96640.72;;;5.51;69.01
13029;BME280;6581;42.662;23.402;2023-02-15T10:42:22;96644.81;;;5.57;67.95
13029;BME280;6581;42.662;23.402;2023-02-15T10:45:07;96634.28;;;5.29;69.02
13029;BME280;6581;42.662;23.402;2023-02-15T10:47:52;96628.44;;;5.46;70.00
13029;BME280;6581;42.662;23.402;2023-02-15T10:50:40;96635.53;;;5.73;69.68
13029;BME280;6581;42.662;23.402;2023-02-15T10:53:26;96623.59;;;5.40;70.23
13029;BME280;6581;42.662;23.402;2023-02-15T10:56:03;96633.59;;;5.38;71.21
13029;BME280;6581;42.662;23.402;2023-02-15T10:58:47;96623.19;;;5.46;70.42
13029;BME280;6581;42.662;23.402;2023-02-15T11:01:22;96628.63;;;5.22;70.84
13029;BME280;6581;42.662;23.402;2023-02-15T11:04:06;96626.28;;;5.21;70.15
13029;BME280;6581;42.662;23.402;2023-02-15T11:06:39;96612.28;;;5.25;70.31
13029;BME280;6581;42.662;23.402;2023-02-15T11:09:12;96623.19;;;5.46;69.56
13029;BME280;6581;42.662;23.402;2023-02-15T11:11:42;96622.41;;;5.46;69.30
13029;BME280;6581;42.662;23.402;2023-02-15T11:14:15;96623.00;;;5.43;69.07
13029;BME280;6581;42.662;23.402;2023-02-15T11:16:53;96616.88;;;5.61;69.28
13029;BME280;6581;42.662;23.402;2023-02-15T11:19:27;96619.69;;;5.64;68.04
13029;BME280;6581;42.662;23.402;2023-02-15T11:22:01;96629.91;;;5.66;68.89
13029;BME280;6581;42.662;23.402;2023-02-15T11:24:31;96618.34;;;5.67;68.20
13029;BME280;6581;42.662;23.402;2023-02-15T11:27:03;96623.41;;;5.63;68.56
13029;BME280;6581;42.662;23.402;2023-02-15T11:29:34;96614.50;;;5.59;69.17
13029;BME280;6581;42.662;23.402;2023-02-15T11:32:14;96626.13;;;5.58;68.11
13029;BME280;6581;42.662;23.402;2023-02-15T11:34:49;96617.84;;;5.38;69.87
13029;BME280;6581;42.662;23.402;2023-02-15T11:37:21;96616.94;;;5.28;70.15
13029;BME280;6581;42.662;23.402;2023-02-15T11:39:51;96617.28;;;5.41;69.51
13029;BME280;6581;42.662;23.402;2023-02-15T11:42:22;96608.19;;;5.60;70.10
13029;BME280;6581;42.662;23.402;2023-02-15T11:44:57;96607.50;;;5.68;68.99
13029;BME280;6581;42.662;23.402;2023-02-15T11:47:27;96599.06;;;5.58;68.83
13029;BME280;6581;42.662;23.402;2023-02-15T11:49:54;96587.16;;;5.60;68.83
13029;BME280;6581;42.662;23.402;2023-02-15T11:52:21;96585.59;;;5.73;68.83
13029;BME280;6581;42.662;23.402;2023-02-15T11:54:50;96592.31;;;5.93;68.47
13029;BME280;6581;42.662;23.402;2023-02-15T11:57:26;96578.69;;;5.91;67.72
13029;BME280;6581;42.662;23.402;2023-02-15T12:00:01;96586.56;;;6.04;67.41
13029;BME280;6581;42.662;23.402;2023-02-15T12:02:35;96579.56;;;6.00;66.18
13029;BME280;6581;42.662;23.402;2023-02-15T12:05:09;96586.09;;;5.89;66.45
13029;BME280;6581;42.662;23.402;2023-02-15T12:07:43;96560.50;;;5.67;66.05
13029;BME280;6581;42.662;23.402;2023-02-15T12:10:19;96574.50;;;5.76;66.81
13029;BME280;6581;42.662;23.402;2023-02-15T12:13:09;96560.56;;;5.75;66.93
13029;BME280;6581;42.662;23.402;2023-02-15T12:15:37;96566.31;;;5.91;66.39
13029;BME280;6581;42.662;23.402;2023-02-15T12:18:21;96560.66;;;5.98;65.78
13029;BME280;6581;42.662;23.402;2023-02-15T12:20:58;96557.78;;;6.08;65.74
13029;BME280;6581;42.662;23.402;2023-02-15T12:23:28;96558.22;;;6.23;64.76
13029;BME280;6581;42.662;23.402;2023-02-15T12:25:58;96557.56;;;6.18;63.33
13029;BME280;6581;42.662;23.402;2023-02-15T12:28:31;96557.50;;;6.09;64.40
13029;BME280;6581;42.662;23.402;2023-02-15T12:31:00;96553.63;;;6.29;64.25
13029;BME280;6581;42.662;23.402;2023-02-15T12:33:32;96567.56;;;6.30;63.81
13029;BME280;6581;42.662;23.402;2023-02-15T12:36:09;96562.84;;;6.18;63.79
13029;BME280;6581;42.662;23.402;2023-02-15T12:38:38;96545.72;;;6.29;63.19
13029;BME280;6581;42.662;23.402;2023-02-15T12:41:22;96550.56;;;6.36;62.75
13029;BME280;6581;42.662;23.402;2023-02-15T12:44:04;96542.19;;;6.34;62.20
13029;BME280;6581;42.662;23.402;2023-02-15T12:46:34;96537.88;;;6.38;62.76
13029;BME280;6581;42.662;23.402;2023-02-15T12:49:14;96527.56;;;6.41;63.24
13029;BME280;6581;42.662;23.402;2023-02-15T12:51:45;96525.31;;;6.57;63.48
13029;BME280;6581;42.662;23.402;2023-02-15T12:54:35;96520.09;;;6.65;63.36
13029;BME280;6581;42.662;23.402;2023-02-15T12:57:21;96526.25;;;6.61;62.32
13029;BME280;6581;42.662;23.402;2023-02-15T12:59:52;96522.44;;;6.67;62.50
13029;BME280;6581;42.662;23.402;2023-02-15T13:02:24;96525.59;;;6.55;62.60
13029;BME280;6581;42.662;23.402;2023-02-15T13:04:53;96521.25;;;6.51;62.61
13029;BME280;6581;42.662;23.402;2023-02-15T13:07:24;96521.59;;;6.58;63.20
13029;BME280;6581;42.662;23.402;2023-02-15T13:09:56;96513.84;;;6.84;62.09
13029;BME280;6581;42.662;23.402;2023-02-15T13:12:26;96516.06;;;6.99;61.62
13029;BME280;6581;42.662;23.402;2023-02-15T13:14:56;96513.41;;;6.90;60.53
13029;BME280;6581;42.662;23.402;2023-02-15T13:17:27;96514.25;;;6.68;61.43
13029;BME280;6581;42.662;23.402;2023-02-15T13:19:59;96508.91;;;6.91;61.15
13029;BME280;6581;42.662;23.402;2023-02-15T13:22:33;96510.53;;;7.09;61.07
13029;BME280;6581;42.662;23.402;2023-02-15T13:25:04;96505.09;;;7.05;60.39
13029;BME280;6581;42.662;23.402;2023-02-15T13:27:38;96505.25;;;7.00;60.17
13029;BME280;6581;42.662;23.402;2023-02-15T13:30:17;96509.31;;;7.15;59.56
13029;BME280;6581;42.662;23.402;2023-02-15T13:32:49;96512.09;;;7.10;59.89
13029;BME280;6581;42.662;23.402;2023-02-15T13:35:20;96508.84;;;7.13;59.53
13029;BME280;6581;42.662;23.402;2023-02-15T13:38:03;96509.97;;;7.29;59.84
13029;BME280;6581;42.662;23.402;2023-02-15T13:40:36;96518.25;;;7.45;59.02
13029;BME280;6581;42.662;23.402;2023-02-15T13:43:23;96519.91;;;7.32;59.59
13029;BME280;6581;42.662;23.402;2023-02-15T13:46:04;96514.75;;;7.19;60.34
13029;BME280;6581;42.662;23.402;2023-02-15T13:48:43;96525.22;;;7.01;60.73
13029;BME280;6581;42.662;23.402;2023-02-15T13:51:21;96515.03;;;7.08;60.56
13029;BME280;6581;42.662;23.402;2023-02-15T13:54:23;96524.66;;;7.13;60.75
13029;BME280;6581;42.662;23.402;2023-02-15T13:57:02;96530.13;;;6.86;61.08
13029;BME280;6581;42.662;23.402;2023-02-15T13:59:51;96530.97;;;7.03;61.38
13029;BME280;6581;42.662;23.402;2023-02-15T14:02:46;96534.66;;;6.94;60.95
13029;BME280;6581;42.662;23.402;2023-02-15T14:05:31;96539.66;;;7.04;61.29
13029;BME280;6581;42.662;23.402;2023-02-15T14:08:11;96538.38;;;7.01;61.35
13029;BME280;6581;42.662;23.402;2023-02-15T14:10:45;96532.84;;;7.11;61.18
13029;BME280;6581;42.662;23.402;2023-02-15T14:13:42;96528.47;;;6.98;62.33
13029;BME280;6581;42.662;23.402;2023-02-15T14:16:17;96532.47;;;6.87;62.49
13029;BME280;6581;42.662;23.402;2023-02-15T14:18:48;96533.78;;;6.76;62.92
13029;BME280;6581;42.662;23.402;2023-02-15T14:21:22;96550.91;;;6.87;63.22
13029;BME280;6581;42.662;23.402;2023-02-15T14:24:00;96562.75;;;6.76;63.30
13029;BME280;6581;42.662;23.402;2023-02-15T14:26:40;96558.22;;;6.68;63.49
13029;BME280;6581;42.662;23.402;2023-02-15T14:29:18;96552.59;;;6.61;63.97
13029;BME280;6581;42.662;23.402;2023-02-15T14:31:50;96572.88;;;6.60;63.68
13029;BME280;6581;42.662;23.402;2023-02-15T14:34:22;96553.09;;;6.41;63.85
13029;BME280;6581;42.662;23.402;2023-02-15T14:36:51;96558.34;;;6.41;64.77
13029;BME280;6581;42.662;23.402;2023-02-15T14:39:29;96555.97;;;6.31;65.98
13029;BME280;6581;42.662;23.402;2023-02-15T14:42:22;96557.81;;;6.30;65.74
13029;BME280;6581;42.662;23.402;2023-02-15T14:44:58;96555.00;;;6.27;65.93
13029;BME280;6581;42.662;23.402;2023-02-15T14:47:32;96552.94;;;6.23;66.33
13029;BME280;6581;42.662;23.402;2023-02-15T14:50:42;96555.91;;;6.22;66.66
13029;BME280;6581;42.662;23.402;2023-02-15T14:53:36;96552.94;;;6.23;66.49
13029;BME280;6581;42.662;23.402;2023-02-15T14:56:22;96553.66;;;6.15;67.21
13029;BME280;6581;42.662;23.402;2023-02-15T14:59:01;96563.72;;;6.13;66.37